KBJJ/BJJ METAR and TAF weather

Enter ICAO airport designator
Station Type Date Time Source
KBJJ METAR 2019/06/16 06:56 UTC NOAA

KBJJ 160656Z AUTO 19010G17KT 10SM -RA BKN010 OVC014 19/18 A2978 RMK AO2 CIG 007V012 SLP077 P0010 T01890178


Station Type Date Time Source
KBJJ Decoded METAR 2019/06/16 06:56 UTC NOAA

WOOSTER WAYNE COUNTY AIRPORT, OH, United States (KBJJ) 40-52N 81-53W 343M
Jun 16, 2019 - 02:56 AM EDT / 2019.06.16 0656 UTC
Wind: from the S (190 degrees) at 12 MPH (10 KT) gusting to 20 MPH (17 KT):0
Visibility: 10 mile(s):0
Sky conditions: overcast
Weather: light rain
Precipitation last hour: 0.10 inches
Temperature: 66.0 F (18.9 C)
Dew Point: 64.0 F (17.8 C)
Relative Humidity: 93%
Pressure (altimeter): 29.78 in. Hg (1008 hPa)
ob: KBJJ 160656Z AUTO 19010G17KT 10SM -RA BKN010 OVC014 19/18 A2978 RMK AO2 CIG 007V012 SLP077 P0010 T01890178
cycle: 7

Station Type Date Time Source
KBJJ TAF UTC NOAA

Error!

Example: see airport list